If you wish to contribute or participate in the discussions about articles you are invited to join SKYbrary as a registered user

 Actions

Campo de Marte Airport

From SKYbrary Wiki

SBMT
Airport
ICAO: SBMT – IATA: MAE
Summary
Name Campo de Marte Airport
Region South America and Caribbean
Territory Brazil BR.gif
Location Campo de Marte, Sao Paulo
Serving Sao Paulo
Elevation 721.766 m
2,368 ft721.766 m
Coordinates 23° 30' 24.98" S, 46° 38' 3.01" W
Runways
Designator Length Width Surface ROPS
12/30 25 m82.021 ft
25 m82.021 ft
CON /


METAR
Observation SBMT 181500Z 06007KT 8000 NSC 28/18 Q1018
Station Marte Civ / Mil
Date/Time 18 October 2019 15:00:00
Wind direction 60°
Wind speed 07 kts
Lowest cloud amount nil significant cloud
Temperature 28°C
Dew point 18°C
Humidity 54%
QNH 1018 hPa
Weather condition n/a

Campo de Marte Airport is the first airport built in São Paulo, Brazil, opened in 1919.

Climatology

Humid subtropical climate (Köppen climate classification Cfa)

Maps

Terrain

Loading map...

Airport Layout

Loading map...


Accidents & Serious Incidents at or in vicinity of SBMT

None on SKYbrary